sensor_id;sensor_type;location;lat;lon;timestamp;pressure;altitude;pressure_sealevel;temperature;humidity
19128;BME280;9696;53.686;10.094;2023-01-31T00:00:50;101423.09;;;3.18;100.00
19128;BME280;9696;53.686;10.094;2023-01-31T00:03:19;101435.88;;;3.02;100.00
19128;BME280;9696;53.686;10.094;2023-01-31T00:05:48;101429.50;;;3.09;100.00
19128;BME280;9696;53.686;10.094;2023-01-31T00:08:17;101432.75;;;3.14;100.00
19128;BME280;9696;53.686;10.094;2023-01-31T00:10:46;101434.84;;;3.06;100.00
19128;BME280;9696;53.686;10.094;2023-01-31T00:13:15;101431.59;;;3.01;100.00
19128;BME280;9696;53.686;10.094;2023-01-31T00:15:45;101436.22;;;2.95;100.00
19128;BME280;9696;53.686;10.094;2023-01-31T00:18:15;101430.69;;;3.02;100.00
19128;BME280;9696;53.686;10.094;2023-01-31T00:20:44;101434.38;;;2.97;100.00
19128;BME280;9696;53.686;10.094;2023-01-31T00:23:13;101443.66;;;3.02;100.00
19128;BME280;9696;53.686;10.094;2023-01-31T00:25:42;101441.66;;;2.89;100.00
19128;BME280;9696;53.686;10.094;2023-01-31T00:28:11;101452.66;;;2.94;100.00
19128;BME280;9696;53.686;10.094;2023-01-31T00:30:40;101450.78;;;2.97;100.00
19128;BME280;9696;53.686;10.094;2023-01-31T00:33:10;101459.66;;;3.12;100.00
19128;BME280;9696;53.686;10.094;2023-01-31T00:35:41;101460.94;;;3.22;100.00
19128;BME280;9696;53.686;10.094;2023-01-31T00:38:12;101471.16;;;3.25;100.00
19128;BME280;9696;53.686;10.094;2023-01-31T00:40:41;101475.16;;;3.32;100.00
19128;BME280;9696;53.686;10.094;2023-01-31T00:43:10;101483.97;;;3.28;100.00
19128;BME280;9696;53.686;10.094;2023-01-31T00:45:40;101477.19;;;3.25;100.00
19128;BME280;9696;53.686;10.094;2023-01-31T00:48:09;101470.25;;;3.26;100.00
19128;BME280;9696;53.686;10.094;2023-01-31T00:50:38;101467.66;;;3.26;100.00
19128;BME280;9696;53.686;10.094;2023-01-31T00:53:09;101475.03;;;3.35;100.00
19128;BME280;9696;53.686;10.094;2023-01-31T00:55:38;101480.91;;;3.39;100.00
19128;BME280;9696;53.686;10.094;2023-01-31T00:58:08;101482.47;;;3.43;100.00
19128;BME280;9696;53.686;10.094;2023-01-31T01:00:37;101491.16;;;3.42;100.00
19128;BME280;9696;53.686;10.094;2023-01-31T01:03:06;101480.41;;;3.30;100.00
19128;BME280;9696;53.686;10.094;2023-01-31T01:05:35;101490.09;;;3.27;100.00
19128;BME280;9696;53.686;10.094;2023-01-31T01:08:05;101492.59;;;3.28;100.00
19128;BME280;9696;53.686;10.094;2023-01-31T01:10:35;101484.75;;;3.30;100.00
19128;BME280;9696;53.686;10.094;2023-01-31T01:13:04;101488.34;;;3.27;100.00
19128;BME280;9696;53.686;10.094;2023-01-31T01:15:37;101488.41;;;3.26;100.00
19128;BME280;9696;53.686;10.094;2023-01-31T01:18:06;101497.06;;;3.25;100.00
19128;BME280;9696;53.686;10.094;2023-01-31T01:20:35;101486.91;;;3.20;100.00
19128;BME280;9696;53.686;10.094;2023-01-31T01:23:04;101481.84;;;3.17;100.00
19128;BME280;9696;53.686;10.094;2023-01-31T01:25:42;101484.59;;;3.14;100.00
19128;BME280;9696;53.686;10.094;2023-01-31T01:28:12;101472.66;;;3.10;100.00
19128;BME280;9696;53.686;10.094;2023-01-31T01:30:41;101466.59;;;3.11;100.00
19128;BME280;9696;53.686;10.094;2023-01-31T01:33:10;101465.88;;;3.08;100.00
19128;BME280;9696;53.686;10.094;2023-01-31T01:35:39;101465.09;;;3.06;100.00
19128;BME280;9696;53.686;10.094;2023-01-31T01:38:08;101467.25;;;2.96;100.00
19128;BME280;9696;53.686;10.094;2023-01-31T01:40:40;101476.13;;;2.91;100.00
19128;BME280;9696;53.686;10.094;2023-01-31T01:43:11;101482.41;;;2.85;100.00
19128;BME280;9696;53.686;10.094;2023-01-31T01:45:40;101485.13;;;2.82;100.00
19128;BME280;9696;53.686;10.094;2023-01-31T01:48:14;101491.34;;;2.78;100.00
19128;BME280;9696;53.686;10.094;2023-01-31T01:50:48;101501.03;;;2.73;100.00
19128;BME280;9696;53.686;10.094;2023-01-31T01:53:19;101494.78;;;2.78;100.00
19128;BME280;9696;53.686;10.094;2023-01-31T01:55:51;101484.59;;;2.74;100.00
19128;BME280;9696;53.686;10.094;2023-01-31T01:58:24;101488.88;;;2.75;100.00
19128;BME280;9696;53.686;10.094;2023-01-31T02:00:55;101493.22;;;2.74;100.00
19128;BME280;9696;53.686;10.094;2023-01-31T02:03:24;101484.22;;;2.83;100.00
19128;BME280;9696;53.686;10.094;2023-01-31T02:05:57;101488.44;;;2.85;100.00
19128;BME280;9696;53.686;10.094;2023-01-31T02:08:31;101496.84;;;2.91;100.00
19128;BME280;9696;53.686;10.094;2023-01-31T02:11:05;101496.66;;;2.95;100.00
19128;BME280;9696;53.686;10.094;2023-01-31T02:13:38;101494.91;;;2.96;100.00
19128;BME280;9696;53.686;10.094;2023-01-31T02:16:14;101496.47;;;3.00;100.00
19128;BME280;9696;53.686;10.094;2023-01-31T02:18:44;101495.53;;;3.01;100.00
19128;BME280;9696;53.686;10.094;2023-01-31T02:24:39;101502.41;;;3.02;100.00
19128;BME280;9696;53.686;10.094;2023-01-31T02:27:41;101492.50;;;3.11;100.00
19128;BME280;9696;53.686;10.094;2023-01-31T02:33:27;101499.53;;;3.28;100.00
19128;BME280;9696;53.686;10.094;2023-01-31T02:36:05;101503.66;;;3.32;100.00
19128;BME280;9696;53.686;10.094;2023-01-31T02:38:45;101497.56;;;3.33;100.00
19128;BME280;9696;53.686;10.094;2023-01-31T02:41:25;101500.88;;;3.37;100.00
19128;BME280;9696;53.686;10.094;2023-01-31T02:44:04;101512.88;;;3.39;100.00
19128;BME280;9696;53.686;10.094;2023-01-31T02:46:57;101513.34;;;3.28;100.00
19128;BME280;9696;53.686;10.094;2023-01-31T02:49:36;101516.06;;;3.25;100.00
19128;BME280;9696;53.686;10.094;2023-01-31T02:52:17;101509.19;;;3.24;100.00
19128;BME280;9696;53.686;10.094;2023-01-31T02:55:02;101505.97;;;3.19;100.00
19128;BME280;9696;53.686;10.094;2023-01-31T02:57:54;101526.19;;;3.11;100.00
19128;BME280;9696;53.686;10.094;2023-01-31T03:00:25;101522.09;;;3.06;100.00
19128;BME280;9696;53.686;10.094;2023-01-31T03:02:54;101512.53;;;3.08;100.00
19128;BME280;9696;53.686;10.094;2023-01-31T03:05:25;101509.00;;;3.09;100.00
19128;BME280;9696;53.686;10.094;2023-01-31T03:07:56;101501.56;;;3.01;100.00
19128;BME280;9696;53.686;10.094;2023-01-31T03:13:43;101510.06;;;2.84;100.00
19128;BME280;9696;53.686;10.094;2023-01-31T03:16:21;101500.41;;;2.68;100.00
19128;BME280;9696;53.686;10.094;2023-01-31T03:19:15;101503.78;;;2.70;100.00
19128;BME280;9696;53.686;10.094;2023-01-31T03:21:54;101508.94;;;2.70;100.00
19128;BME280;9696;53.686;10.094;2023-01-31T03:24:26;101500.72;;;2.80;100.00
19128;BME280;9696;53.686;10.094;2023-01-31T03:26:58;101502.34;;;2.83;100.00
19128;BME280;9696;53.686;10.094;2023-01-31T03:29:33;101493.59;;;2.85;100.00
19128;BME280;9696;53.686;10.094;2023-01-31T03:32:13;101481.56;;;2.84;100.00
19128;BME280;9696;53.686;10.094;2023-01-31T03:34:46;101487.47;;;2.88;100.00
19128;BME280;9696;53.686;10.094;2023-01-31T03:37:24;101475.94;;;2.95;100.00
19128;BME280;9696;53.686;10.094;2023-01-31T03:40:09;101472.31;;;2.99;100.00
19128;BME280;9696;53.686;10.094;2023-01-31T03:42:44;101470.56;;;3.00;100.00
19128;BME280;9696;53.686;10.094;2023-01-31T03:45:20;101474.81;;;3.01;100.00
19128;BME280;9696;53.686;10.094;2023-01-31T03:47:52;101480.78;;;3.03;100.00
19128;BME280;9696;53.686;10.094;2023-01-31T03:50:25;101473.19;;;2.98;100.00
19128;BME280;9696;53.686;10.094;2023-01-31T03:53:01;101472.22;;;3.01;100.00
19128;BME280;9696;53.686;10.094;2023-01-31T03:55:36;101482.00;;;2.94;100.00
19128;BME280;9696;53.686;10.094;2023-01-31T03:58:08;101481.88;;;2.97;100.00
19128;BME280;9696;53.686;10.094;2023-01-31T04:00:42;101486.81;;;3.03;100.00
19128;BME280;9696;53.686;10.094;2023-01-31T04:03:16;101484.03;;;3.08;100.00
19128;BME280;9696;53.686;10.094;2023-01-31T04:05:46;101479.66;;;3.08;100.00
19128;BME280;9696;53.686;10.094;2023-01-31T04:08:18;101488.38;;;3.07;100.00
19128;BME280;9696;53.686;10.094;2023-01-31T04:10:57;101482.91;;;3.13;100.00
19128;BME280;9696;53.686;10.094;2023-01-31T04:13:27;101484.53;;;3.16;100.00
19128;BME280;9696;53.686;10.094;2023-01-31T04:15:56;101492.38;;;3.14;100.00
19128;BME280;9696;53.686;10.094;2023-01-31T04:18:25;101483.59;;;3.17;100.00
19128;BME280;9696;53.686;10.094;2023-01-31T04:20:54;101479.34;;;3.16;100.00
19128;BME280;9696;53.686;10.094;2023-01-31T04:23:25;101481.81;;;3.19;100.00
19128;BME280;9696;53.686;10.094;2023-01-31T04:25:54;101482.91;;;3.13;100.00
19128;BME280;9696;53.686;10.094;2023-01-31T04:28:23;101480.97;;;3.18;100.00
19128;BME280;9696;53.686;10.094;2023-01-31T04:30:53;101474.09;;;3.17;100.00
19128;BME280;9696;53.686;10.094;2023-01-31T04:33:22;101482.66;;;3.19;100.00
19128;BME280;9696;53.686;10.094;2023-01-31T04:35:52;101489.50;;;3.20;100.00
19128;BME280;9696;53.686;10.094;2023-01-31T04:38:21;101501.63;;;3.20;100.00
19128;BME280;9696;53.686;10.094;2023-01-31T04:40:51;101485.28;;;3.18;100.00
19128;BME280;9696;53.686;10.094;2023-01-31T04:43:21;101478.41;;;3.17;100.00
19128;BME280;9696;53.686;10.094;2023-01-31T04:45:49;101484.78;;;3.10;100.00
19128;BME280;9696;53.686;10.094;2023-01-31T04:48:19;101481.09;;;3.15;100.00
19128;BME280;9696;53.686;10.094;2023-01-31T04:50:48;101480.16;;;3.16;100.00
19128;BME280;9696;53.686;10.094;2023-01-31T04:53:17;101477.66;;;3.15;100.00
19128;BME280;9696;53.686;10.094;2023-01-31T04:55:48;101479.06;;;3.22;100.00
19128;BME280;9696;53.686;10.094;2023-01-31T04:58:19;101486.78;;;3.23;100.00
19128;BME280;9696;53.686;10.094;2023-01-31T05:00:48;101477.31;;;3.22;100.00
19128;BME280;9696;53.686;10.094;2023-01-31T05:03:18;101475.56;;;3.23;100.00
19128;BME280;9696;53.686;10.094;2023-01-31T05:05:48;101471.25;;;3.23;100.00
19128;BME280;9696;53.686;10.094;2023-01-31T05:08:17;101478.22;;;3.21;100.00
19128;BME280;9696;53.686;10.094;2023-01-31T05:10:46;101479.00;;;3.23;100.00
19128;BME280;9696;53.686;10.094;2023-01-31T05:13:15;101478.94;;;3.25;100.00
19128;BME280;9696;53.686;10.094;2023-01-31T05:15:48;101473.53;;;3.29;100.00
19128;BME280;9696;53.686;10.094;2023-01-31T05:18:17;101465.00;;;3.27;100.00
19128;BME280;9696;53.686;10.094;2023-01-31T05:20:47;101469.34;;;3.27;100.00
19128;BME280;9696;53.686;10.094;2023-01-31T05:23:18;101456.19;;;3.31;100.00
19128;BME280;9696;53.686;10.094;2023-01-31T05:25:49;101453.59;;;3.31;100.00
19128;BME280;9696;53.686;10.094;2023-01-31T05:28:18;101450.72;;;3.38;100.00
19128;BME280;9696;53.686;10.094;2023-01-31T05:30:49;101444.69;;;3.37;100.00
19128;BME280;9696;53.686;10.094;2023-01-31T05:33:18;101456.75;;;3.38;100.00
19128;BME280;9696;53.686;10.094;2023-01-31T05:35:48;101447.06;;;3.42;100.00
19128;BME280;9696;53.686;10.094;2023-01-31T05:38:17;101449.66;;;3.42;100.00
19128;BME280;9696;53.686;10.094;2023-01-31T05:40:46;101455.53;;;3.45;100.00
19128;BME280;9696;53.686;10.094;2023-01-31T05:43:17;101459.81;;;3.46;100.00
19128;BME280;9696;53.686;10.094;2023-01-31T05:45:48;101444.28;;;3.46;100.00
19128;BME280;9696;53.686;10.094;2023-01-31T05:48:17;101428.78;;;3.45;100.00
19128;BME280;9696;53.686;10.094;2023-01-31T05:50:48;101430.53;;;3.44;100.00
19128;BME280;9696;53.686;10.094;2023-01-31T05:53:18;101431.44;;;3.43;100.00
19128;BME280;9696;53.686;10.094;2023-01-31T05:55:49;101426.19;;;3.45;100.00
19128;BME280;9696;53.686;10.094;2023-01-31T05:58:18;101422.63;;;3.47;100.00
19128;BME280;9696;53.686;10.094;2023-01-31T06:00:48;101418.50;;;3.43;100.00
19128;BME280;9696;53.686;10.094;2023-01-31T06:03:17;101420.03;;;3.47;100.00
19128;BME280;9696;53.686;10.094;2023-01-31T06:05:46;101413.22;;;3.45;100.00
19128;BME280;9696;53.686;10.094;2023-01-31T06:08:15;101430.41;;;3.47;100.00
19128;BME280;9696;53.686;10.094;2023-01-31T06:10:45;101424.38;;;3.47;100.00
19128;BME280;9696;53.686;10.094;2023-01-31T06:13:14;101418.41;;;3.45;100.00
19128;BME280;9696;53.686;10.094;2023-01-31T06:16:19;101401.94;;;3.46;100.00
19128;BME280;9696;53.686;10.094;2023-01-31T06:18:48;101411.31;;;3.48;100.00
19128;BME280;9696;53.686;10.094;2023-01-31T06:21:17;101404.97;;;3.55;100.00
19128;BME280;9696;53.686;10.094;2023-01-31T06:23:46;101398.97;;;3.53;100.00
19128;BME280;9696;53.686;10.094;2023-01-31T06:26:15;101398.09;;;3.54;100.00
19128;BME280;9696;53.686;10.094;2023-01-31T06:28:44;101399.81;;;3.54;100.00
19128;BME280;9696;53.686;10.094;2023-01-31T06:31:14;101400.59;;;3.56;100.00
19128;BME280;9696;53.686;10.094;2023-01-31T06:33:45;101404.03;;;3.56;100.00
19128;BME280;9696;53.686;10.094;2023-01-31T06:36:15;101401.31;;;3.59;100.00
19128;BME280;9696;53.686;10.094;2023-01-31T06:38:49;101391.00;;;3.58;100.00
19128;BME280;9696;53.686;10.094;2023-01-31T06:41:19;101393.00;;;3.70;100.00
19128;BME280;9696;53.686;10.094;2023-01-31T06:43:50;101398.25;;;3.68;100.00
19128;BME280;9696;53.686;10.094;2023-01-31T06:46:20;101387.03;;;3.68;100.00
19128;BME280;9696;53.686;10.094;2023-01-31T06:48:52;101381.63;;;3.72;100.00
19128;BME280;9696;53.686;10.094;2023-01-31T06:51:22;101373.84;;;3.72;100.00
19128;BME280;9696;53.686;10.094;2023-01-31T06:53:52;101378.69;;;3.80;100.00
19128;BME280;9696;53.686;10.094;2023-01-31T06:56:23;101369.34;;;3.76;100.00
19128;BME280;9696;53.686;10.094;2023-01-31T06:58:53;101368.44;;;3.77;100.00
19128;BME280;9696;53.686;10.094;2023-01-31T07:01:22;101360.59;;;3.78;100.00
19128;BME280;9696;53.686;10.094;2023-01-31T07:03:55;101358.22;;;3.74;100.00
19128;BME280;9696;53.686;10.094;2023-01-31T07:06:24;101351.41;;;3.71;100.00
19128;BME280;9696;53.686;10.094;2023-01-31T07:08:54;101347.75;;;3.75;100.00
19128;BME280;9696;53.686;10.094;2023-01-31T07:11:23;101333.25;;;3.71;100.00
19128;BME280;9696;53.686;10.094;2023-01-31T07:13:53;101331.59;;;3.70;100.00
19128;BME280;9696;53.686;10.094;2023-01-31T07:16:22;101327.09;;;3.74;100.00
19128;BME280;9696;53.686;10.094;2023-01-31T07:18:55;101308.25;;;3.70;100.00
19128;BME280;9696;53.686;10.094;2023-01-31T07:21:25;101310.84;;;3.70;100.00
19128;BME280;9696;53.686;10.094;2023-01-31T07:23:57;101308.84;;;3.75;100.00
19128;BME280;9696;53.686;10.094;2023-01-31T07:26:27;101295.97;;;3.74;100.00
19128;BME280;9696;53.686;10.094;2023-01-31T07:28:57;101302.84;;;3.75;100.00
19128;BME280;9696;53.686;10.094;2023-01-31T07:31:26;101299.41;;;3.74;100.00
19128;BME280;9696;53.686;10.094;2023-01-31T07:33:57;101291.31;;;3.80;100.00
19128;BME280;9696;53.686;10.094;2023-01-31T07:36:26;101285.94;;;3.84;100.00
19128;BME280;9696;53.686;10.094;2023-01-31T07:38:56;101292.09;;;3.83;100.00
19128;BME280;9696;53.686;10.094;2023-01-31T07:41:26;101295.38;;;3.86;100.00
19128;BME280;9696;53.686;10.094;2023-01-31T07:43:56;101281.59;;;3.84;100.00
19128;BME280;9696;53.686;10.094;2023-01-31T07:46:25;101272.69;;;3.90;100.00
19128;BME280;9696;53.686;10.094;2023-01-31T07:48:56;101275.06;;;3.94;100.00
19128;BME280;9696;53.686;10.094;2023-01-31T07:51:25;101271.31;;;4.00;100.00
19128;BME280;9696;53.686;10.094;2023-01-31T07:53:55;101263.69;;;3.97;100.00
19128;BME280;9696;53.686;10.094;2023-01-31T07:56:25;101257.34;;;4.02;100.00
19128;BME280;9696;53.686;10.094;2023-01-31T07:58:54;101256.50;;;4.02;100.00
19128;BME280;9696;53.686;10.094;2023-01-31T08:01:24;101260.53;;;4.07;100.00
19128;BME280;9696;53.686;10.094;2023-01-31T08:04:15;101264.66;;;4.11;100.00
19128;BME280;9696;53.686;10.094;2023-01-31T08:06:52;101260.28;;;4.12;100.00
19128;BME280;9696;53.686;10.094;2023-01-31T08:09:22;101248.00;;;4.15;100.00
19128;BME280;9696;53.686;10.094;2023-01-31T08:11:51;101234.78;;;4.20;100.00
19128;BME280;9696;53.686;10.094;2023-01-31T08:14:20;101235.63;;;4.20;100.00
19128;BME280;9696;53.686;10.094;2023-01-31T08:16:52;101238.81;;;4.25;100.00
19128;BME280;9696;53.686;10.094;2023-01-31T08:19:23;101242.34;;;4.24;100.00
19128;BME280;9696;53.686;10.094;2023-01-31T08:21:53;101234.38;;;4.27;100.00
19128;BME280;9696;53.686;10.094;2023-01-31T08:24:22;101236.06;;;4.28;100.00
19128;BME280;9696;53.686;10.094;2023-01-31T08:26:51;101237.97;;;4.25;100.00
19128;BME280;9696;53.686;10.094;2023-01-31T08:29:20;101231.03;;;4.25;100.00
19128;BME280;9696;53.686;10.094;2023-01-31T08:31:50;101234.38;;;4.27;100.00
19128;BME280;9696;53.686;10.094;2023-01-31T08:34:19;101230.13;;;4.26;100.00
19128;BME280;9696;53.686;10.094;2023-01-31T08:36:51;101236.06;;;4.28;100.00
19128;BME280;9696;53.686;10.094;2023-01-31T08:39:20;101201.28;;;4.31;100.00
19128;BME280;9696;53.686;10.094;2023-01-31T08:41:49;101218.56;;;4.32;100.00
19128;BME280;9696;53.686;10.094;2023-01-31T08:44:18;101211.63;;;4.33;100.00
19128;BME280;9696;53.686;10.094;2023-01-31T08:46:48;101204.56;;;4.35;100.00
19128;BME280;9696;53.686;10.094;2023-01-31T08:49:17;101198.38;;;4.37;100.00
19128;BME280;9696;53.686;10.094;2023-01-31T08:51:46;101178.34;;;4.39;100.00
19128;BME280;9696;53.686;10.094;2023-01-31T08:54:16;101179.03;;;4.43;100.00
19128;BME280;9696;53.686;10.094;2023-01-31T08:56:45;101174.59;;;4.45;100.00
19128;BME280;9696;53.686;10.094;2023-01-31T08:59:14;101170.00;;;4.34;100.00
19128;BME280;9696;53.686;10.094;2023-01-31T09:01:43;101150.97;;;4.34;100.00
19128;BME280;9696;53.686;10.094;2023-01-31T09:04:13;101169.47;;;4.27;100.00
19128;BME280;9696;53.686;10.094;2023-01-31T09:06:42;101157.44;;;4.26;100.00
19128;BME280;9696;53.686;10.094;2023-01-31T09:09:11;101146.50;;;4.20;100.00
19128;BME280;9696;53.686;10.094;2023-01-31T09:11:42;101139.38;;;4.23;100.00
19128;BME280;9696;53.686;10.094;2023-01-31T09:14:11;101145.34;;;4.25;100.00
19128;BME280;9696;53.686;10.094;2023-01-31T09:16:40;101133.28;;;4.24;100.00
19128;BME280;9696;53.686;10.094;2023-01-31T09:19:10;101138.00;;;4.34;100.00
19128;BME280;9696;53.686;10.094;2023-01-31T09:21:39;101124.34;;;4.30;100.00
19128;BME280;9696;53.686;10.094;2023-01-31T09:24:09;101122.31;;;4.35;100.00
19128;BME280;9696;53.686;10.094;2023-01-31T09:26:38;101116.44;;;4.32;100.00
19128;BME280;9696;53.686;10.094;2023-01-31T09:29:09;101108.59;;;4.33;100.00
19128;BME280;9696;53.686;10.094;2023-01-31T09:31:38;101099.97;;;4.33;100.00
19128;BME280;9696;53.686;10.094;2023-01-31T09:34:07;101106.00;;;4.33;100.00
19128;BME280;9696;53.686;10.094;2023-01-31T09:36:36;101099.78;;;4.36;100.00
19128;BME280;9696;53.686;10.094;2023-01-31T09:39:05;101087.22;;;4.44;100.00
19128;BME280;9696;53.686;10.094;2023-01-31T09:41:37;101088.22;;;4.41;100.00
19128;BME280;9696;53.686;10.094;2023-01-31T09:44:14;101079.25;;;4.47;100.00
19128;BME280;9696;53.686;10.094;2023-01-31T09:46:48;101086.72;;;4.53;100.00
19128;BME280;9696;53.686;10.094;2023-01-31T09:49:20;101082.53;;;4.50;100.00
19128;BME280;9696;53.686;10.094;2023-01-31T09:51:55;101083.19;;;4.54;100.00
19128;BME280;9696;53.686;10.094;2023-01-31T09:54:28;101076.50;;;4.50;100.00
19128;BME280;9696;53.686;10.094;2023-01-31T09:57:04;101065.94;;;4.53;100.00
19128;BME280;9696;53.686;10.094;2023-01-31T09:59:45;101060.75;;;4.53;100.00
19128;BME280;9696;53.686;10.094;2023-01-31T10:02:32;101063.34;;;4.53;100.00
19128;BME280;9696;53.686;10.094;2023-01-31T10:05:17;101059.81;;;4.54;100.00
19128;BME280;9696;53.686;10.094;2023-01-31T10:07:56;101059.53;;;4.58;100.00
19128;BME280;9696;53.686;10.094;2023-01-31T10:10:34;101048.34;;;4.58;100.00
19128;BME280;9696;53.686;10.094;2023-01-31T10:13:09;101050.00;;;4.59;100.00
19128;BME280;9696;53.686;10.094;2023-01-31T10:15:45;101039.69;;;4.57;100.00
19128;BME280;9696;53.686;10.094;2023-01-31T10:18:18;101042.19;;;4.59;100.00
19128;BME280;9696;53.686;10.094;2023-01-31T10:20:54;101033.47;;;4.60;100.00
19128;BME280;9696;53.686;10.094;2023-01-31T10:23:29;101029.78;;;4.64;100.00
19128;BME280;9696;53.686;10.094;2023-01-31T10:26:01;101034.06;;;4.65;100.00
19128;BME280;9696;53.686;10.094;2023-01-31T10:28:34;101020.97;;;4.66;100.00
19128;BME280;9696;53.686;10.094;2023-01-31T10:31:13;101019.22;;;4.67;100.00
19128;BME280;9696;53.686;10.094;2023-01-31T10:33:50;101009.59;;;4.69;100.00
19128;BME280;9696;53.686;10.094;2023-01-31T10:36:25;101000.94;;;4.68;100.00
19128;BME280;9696;53.686;10.094;2023-01-31T10:39:02;100999.00;;;4.72;100.00
19128;BME280;9696;53.686;10.094;2023-01-31T10:41:40;100994.84;;;4.69;100.00
19128;BME280;9696;53.686;10.094;2023-01-31T10:44:19;100990.94;;;4.77;100.00
19128;BME280;9696;53.686;10.094;2023-01-31T10:46:55;100984.06;;;4.75;100.00
19128;BME280;9696;53.686;10.094;2023-01-31T10:49:26;100967.47;;;4.78;100.00
19128;BME280;9696;53.686;10.094;2023-01-31T10:52:10;100961.44;;;4.78;100.00
19128;BME280;9696;53.686;10.094;2023-01-31T10:54:52;100959.50;;;4.81;100.00
19128;BME280;9696;53.686;10.094;2023-01-31T10:57:27;100958.41;;;4.85;100.00
19128;BME280;9696;53.686;10.094;2023-01-31T10:59:56;100960.81;;;4.88;100.00
19128;BME280;9696;53.686;10.094;2023-01-31T11:02:28;100966.00;;;4.88;100.00
19128;BME280;9696;53.686;10.094;2023-01-31T11:04:58;100951.00;;;4.93;100.00
19128;BME280;9696;53.686;10.094;2023-01-31T11:07:29;100952.47;;;4.97;100.00
19128;BME280;9696;53.686;10.094;2023-01-31T11:09:58;100953.97;;;5.01;100.00
19128;BME280;9696;53.686;10.094;2023-01-31T11:12:41;100969.44;;;5.03;100.00
19128;BME280;9696;53.686;10.094;2023-01-31T11:15:16;100968.25;;;5.08;100.00
19128;BME280;9696;53.686;10.094;2023-01-31T11:17:47;100961.09;;;5.12;100.00
19128;BME280;9696;53.686;10.094;2023-01-31T11:20:23;100960.84;;;5.16;100.00
19128;BME280;9696;53.686;10.094;2023-01-31T11:22:54;100943.47;;;5.17;100.00
19128;BME280;9696;53.686;10.094;2023-01-31T11:25:25;100949.13;;;5.23;100.00
19128;BME280;9696;53.686;10.094;2023-01-31T11:27:57;100938.16;;;5.18;100.00
19128;BME280;9696;53.686;10.094;2023-01-31T11:30:30;100937.25;;;5.19;100.00
19128;BME280;9696;53.686;10.094;2023-01-31T11:33:01;100926.00;;;5.19;100.00
19128;BME280;9696;53.686;10.094;2023-01-31T11:35:32;100923.22;;;5.22;100.00
19128;BME280;9696;53.686;10.094;2023-01-31T11:38:08;100916.81;;;5.28;100.00
19128;BME280;9696;53.686;10.094;2023-01-31T11:40:47;100926.56;;;5.24;100.00
19128;BME280;9696;53.686;10.094;2023-01-31T11:43:24;100925.34;;;5.30;100.00
19128;BME280;9696;53.686;10.094;2023-01-31T11:45:56;100921.81;;;5.31;100.00
19128;BME280;9696;53.686;10.094;2023-01-31T11:48:35;100914.00;;;5.31;100.00
19128;BME280;9696;53.686;10.094;2023-01-31T11:51:06;100908.63;;;5.34;100.00
19128;BME280;9696;53.686;10.094;2023-01-31T11:53:42;100909.38;;;5.36;100.00
19128;BME280;9696;53.686;10.094;2023-01-31T11:56:14;100912.91;;;5.35;100.00
19128;BME280;9696;53.686;10.094;2023-01-31T11:58:47;100907.59;;;5.36;100.00
19128;BME280;9696;53.686;10.094;2023-01-31T12:01:19;100896.38;;;5.36;100.00
19128;BME280;9696;53.686;10.094;2023-01-31T12:03:52;100901.38;;;5.39;100.00
19128;BME280;9696;53.686;10.094;2023-01-31T12:06:32;100884.84;;;5.40;100.00
19128;BME280;9696;53.686;10.094;2023-01-31T12:09:04;100878.22;;;5.48;100.00
19128;BME280;9696;53.686;10.094;2023-01-31T12:11:35;100870.59;;;5.45;100.00
19128;BME280;9696;53.686;10.094;2023-01-31T12:14:12;100874.59;;;5.51;100.00
19128;BME280;9696;53.686;10.094;2023-01-31T12:16:42;100877.00;;;5.54;100.00
19128;BME280;9696;53.686;10.094;2023-01-31T12:19:23;100869.66;;;5.60;100.00
19128;BME280;9696;53.686;10.094;2023-01-31T12:22:01;100861.00;;;5.60;100.00
19128;BME280;9696;53.686;10.094;2023-01-31T12:24:39;100866.56;;;5.68;100.00
19128;BME280;9696;53.686;10.094;2023-01-31T12:27:23;100862.19;;;5.68;100.00
19128;BME280;9696;53.686;10.094;2023-01-31T12:30:20;100856.16;;;5.68;100.00
19128;BME280;9696;53.686;10.094;2023-01-31T12:33:08;100861.16;;;5.71;100.00
19128;BME280;9696;53.686;10.094;2023-01-31T12:35:56;100855.66;;;5.76;100.00
19128;BME280;9696;53.686;10.094;2023-01-31T12:38:45;100833.16;;;5.75;100.00
19128;BME280;9696;53.686;10.094;2023-01-31T12:41:25;100837.66;;;5.73;100.00
19128;BME280;9696;53.686;10.094;2023-01-31T12:44:06;100839.19;;;5.75;100.00
19128;BME280;9696;53.686;10.094;2023-01-31T12:46:55;100840.03;;;5.76;100.00
19128;BME280;9696;53.686;10.094;2023-01-31T12:49:50;100827.94;;;5.75;100.00
19128;BME280;9696;53.686;10.094;2023-01-31T12:52:33;100818.59;;;5.85;100.00
19128;BME280;9696;53.686;10.094;2023-01-31T12:55:17;100835.63;;;5.90;100.00
19128;BME280;9696;53.686;10.094;2023-01-31T12:57:54;100826.97;;;5.90;100.00
19128;BME280;9696;53.686;10.094;2023-01-31T13:00:33;100822.53;;;5.92;100.00
19128;BME280;9696;53.686;10.094;2023-01-31T13:03:23;100812.63;;;5.97;100.00
19128;BME280;9696;53.686;10.094;2023-01-31T13:06:00;100817.13;;;6.07;100.00
19128;BME280;9696;53.686;10.094;2023-01-31T13:08:33;100806.91;;;6.04;100.00
19128;BME280;9696;53.686;10.094;2023-01-31T13:11:06;100796.09;;;6.10;100.00
19128;BME280;9696;53.686;10.094;2023-01-31T13:13:42;100810.97;;;6.08;100.00
19128;BME280;9696;53.686;10.094;2023-01-31T13:16:15;100804.75;;;6.11;100.00
19128;BME280;9696;53.686;10.094;2023-01-31T13:18:48;100806.81;;;6.06;100.00
19128;BME280;9696;53.686;10.094;2023-01-31T13:21:22;100808.81;;;6.15;100.00
19128;BME280;9696;53.686;10.094;2023-01-31T13:23:57;100806.22;;;6.28;100.00
19128;BME280;9696;53.686;10.094;2023-01-31T13:26:30;100807.66;;;6.19;100.00
19128;BME280;9696;53.686;10.094;2023-01-31T13:29:04;100807.88;;;6.29;100.00